sensor_id;sensor_type;location;lat;lon;timestamp;P1;durP1;ratioP1;P2;durP2;ratioP2
13584;SDS011;6863;48.402;9.994;2023-01-06T00:00:38;7.33;;;6.63;;
13584;SDS011;6863;48.402;9.994;2023-01-06T00:03:04;6.97;;;6.37;;
13584;SDS011;6863;48.402;9.994;2023-01-06T00:05:32;7.47;;;6.70;;
13584;SDS011;6863;48.402;9.994;2023-01-06T00:07:57;6.83;;;6.13;;
13584;SDS011;6863;48.402;9.994;2023-01-06T00:10:23;6.80;;;6.20;;
13584;SDS011;6863;48.402;9.994;2023-01-06T00:12:49;6.20;;;5.70;;
13584;SDS011;6863;48.402;9.994;2023-01-06T00:15:15;5.67;;;5.17;;
13584;SDS011;6863;48.402;9.994;2023-01-06T00:17:42;6.07;;;5.50;;
13584;SDS011;6863;48.402;9.994;2023-01-06T00:20:09;5.93;;;5.43;;
13584;SDS011;6863;48.402;9.994;2023-01-06T00:22:37;6.63;;;5.77;;
13584;SDS011;6863;48.402;9.994;2023-01-06T00:25:04;6.77;;;5.60;;
13584;SDS011;6863;48.402;9.994;2023-01-06T00:27:30;6.50;;;5.97;;
13584;SDS011;6863;48.402;9.994;2023-01-06T00:29:56;6.50;;;5.77;;
13584;SDS011;6863;48.402;9.994;2023-01-06T00:32:22;6.30;;;5.70;;
13584;SDS011;6863;48.402;9.994;2023-01-06T00:34:47;6.17;;;5.70;;
13584;SDS011;6863;48.402;9.994;2023-01-06T00:37:13;6.73;;;6.00;;
13584;SDS011;6863;48.402;9.994;2023-01-06T00:39:38;6.23;;;5.70;;
13584;SDS011;6863;48.402;9.994;2023-01-06T00:42:04;6.77;;;6.17;;
13584;SDS011;6863;48.402;9.994;2023-01-06T00:47:00;6.23;;;5.73;;
13584;SDS011;6863;48.402;9.994;2023-01-06T00:49:27;6.60;;;6.00;;
13584;SDS011;6863;48.402;9.994;2023-01-06T00:51:52;6.87;;;6.27;;
13584;SDS011;6863;48.402;9.994;2023-01-06T00:54:19;6.70;;;5.80;;
13584;SDS011;6863;48.402;9.994;2023-01-06T00:56:45;6.30;;;5.73;;
13584;SDS011;6863;48.402;9.994;2023-01-06T00:59:13;6.57;;;5.93;;
13584;SDS011;6863;48.402;9.994;2023-01-06T01:01:40;7.20;;;6.50;;
13584;SDS011;6863;48.402;9.994;2023-01-06T01:04:07;6.90;;;6.20;;
13584;SDS011;6863;48.402;9.994;2023-01-06T01:06:32;8.73;;;6.47;;
13584;SDS011;6863;48.402;9.994;2023-01-06T01:09:00;8.17;;;6.53;;
13584;SDS011;6863;48.402;9.994;2023-01-06T01:11:26;7.57;;;5.57;;
13584;SDS011;6863;48.402;9.994;2023-01-06T01:14:11;6.73;;;5.90;;
13584;SDS011;6863;48.402;9.994;2023-01-06T01:16:38;6.80;;;6.10;;
13584;SDS011;6863;48.402;9.994;2023-01-06T01:19:03;7.20;;;6.50;;
13584;SDS011;6863;48.402;9.994;2023-01-06T01:21:29;7.03;;;6.33;;
13584;SDS011;6863;48.402;9.994;2023-01-06T01:23:55;7.00;;;6.40;;
13584;SDS011;6863;48.402;9.994;2023-01-06T01:26:21;8.10;;;7.30;;
13584;SDS011;6863;48.402;9.994;2023-01-06T01:28:47;8.70;;;7.90;;
13584;SDS011;6863;48.402;9.994;2023-01-06T01:31:15;8.50;;;7.60;;
13584;SDS011;6863;48.402;9.994;2023-01-06T01:33:41;7.90;;;7.20;;
13584;SDS011;6863;48.402;9.994;2023-01-06T01:36:07;8.57;;;6.87;;
13584;SDS011;6863;48.402;9.994;2023-01-06T01:38:35;7.97;;;7.00;;
13584;SDS011;6863;48.402;9.994;2023-01-06T01:41:00;7.57;;;6.63;;
13584;SDS011;6863;48.402;9.994;2023-01-06T01:43:45;7.43;;;6.50;;
13584;SDS011;6863;48.402;9.994;2023-01-06T01:46:30;7.60;;;6.90;;
13584;SDS011;6863;48.402;9.994;2023-01-06T01:49:03;8.27;;;7.50;;
13584;SDS011;6863;48.402;9.994;2023-01-06T01:51:38;6.73;;;6.03;;
13584;SDS011;6863;48.402;9.994;2023-01-06T01:54:08;8.07;;;6.90;;
13584;SDS011;6863;48.402;9.994;2023-01-06T01:56:38;7.20;;;6.57;;
13584;SDS011;6863;48.402;9.994;2023-01-06T01:59:11;7.83;;;7.13;;
13584;SDS011;6863;48.402;9.994;2023-01-06T02:01:41;8.63;;;7.43;;
13584;SDS011;6863;48.402;9.994;2023-01-06T02:04:07;8.10;;;7.30;;
13584;SDS011;6863;48.402;9.994;2023-01-06T02:06:33;8.30;;;7.50;;
13584;SDS011;6863;48.402;9.994;2023-01-06T02:09:11;8.97;;;8.07;;
13584;SDS011;6863;48.402;9.994;2023-01-06T02:11:46;10.43;;;8.03;;
13584;SDS011;6863;48.402;9.994;2023-01-06T02:14:17;11.27;;;8.27;;
13584;SDS011;6863;48.402;9.994;2023-01-06T02:22:38;8.93;;;8.03;;
13584;SDS011;6863;48.402;9.994;2023-01-06T02:37:13;10.30;;;8.53;;
13584;SDS011;6863;48.402;9.994;2023-01-06T02:43:15;9.00;;;8.10;;
13584;SDS011;6863;48.402;9.994;2023-01-06T02:51:04;9.97;;;7.80;;
13584;SDS011;6863;48.402;9.994;2023-01-06T02:56:21;10.60;;;8.60;;
13584;SDS011;6863;48.402;9.994;2023-01-06T02:58:58;14.20;;;9.47;;
13584;SDS011;6863;48.402;9.994;2023-01-06T03:01:32;12.30;;;9.03;;
13584;SDS011;6863;48.402;9.994;2023-01-06T03:04:02;13.17;;;9.13;;
13584;SDS011;6863;48.402;9.994;2023-01-06T03:06:31;11.03;;;8.90;;
13584;SDS011;6863;48.402;9.994;2023-01-06T03:08:59;9.67;;;8.70;;
13584;SDS011;6863;48.402;9.994;2023-01-06T03:11:27;11.00;;;9.13;;
13584;SDS011;6863;48.402;9.994;2023-01-06T03:13:58;11.37;;;9.03;;
13584;SDS011;6863;48.402;9.994;2023-01-06T03:16:29;10.10;;;8.17;;
13584;SDS011;6863;48.402;9.994;2023-01-06T03:18:55;11.87;;;9.10;;
13584;SDS011;6863;48.402;9.994;2023-01-06T03:21:22;10.27;;;8.63;;
13584;SDS011;6863;48.402;9.994;2023-01-06T03:23:49;10.00;;;8.40;;
13584;SDS011;6863;48.402;9.994;2023-01-06T03:26:16;9.23;;;8.33;;
13584;SDS011;6863;48.402;9.994;2023-01-06T03:28:42;11.30;;;8.60;;
13584;SDS011;6863;48.402;9.994;2023-01-06T03:42:53;10.63;;;9.17;;
13584;SDS011;6863;48.402;9.994;2023-01-06T03:50:47;11.40;;;10.07;;
13584;SDS011;6863;48.402;9.994;2023-01-06T03:53:24;15.90;;;11.80;;
13584;SDS011;6863;48.402;9.994;2023-01-06T03:56:24;14.50;;;12.07;;
13584;SDS011;6863;48.402;9.994;2023-01-06T03:59:13;15.80;;;13.13;;
13584;SDS011;6863;48.402;9.994;2023-01-06T04:01:43;17.23;;;13.17;;
13584;SDS011;6863;48.402;9.994;2023-01-06T04:04:09;17.97;;;14.23;;
13584;SDS011;6863;48.402;9.994;2023-01-06T04:06:35;23.90;;;15.47;;
13584;SDS011;6863;48.402;9.994;2023-01-06T04:09:01;19.27;;;14.97;;
13584;SDS011;6863;48.402;9.994;2023-01-06T04:11:30;20.70;;;14.43;;
13584;SDS011;6863;48.402;9.994;2023-01-06T04:14:14;17.43;;;13.83;;
13584;SDS011;6863;48.402;9.994;2023-01-06T04:16:39;22.33;;;15.97;;
13584;SDS011;6863;48.402;9.994;2023-01-06T04:19:05;24.60;;;16.60;;
13584;SDS011;6863;48.402;9.994;2023-01-06T04:21:30;27.00;;;17.07;;
13584;SDS011;6863;48.402;9.994;2023-01-06T04:23:56;30.13;;;18.43;;
13584;SDS011;6863;48.402;9.994;2023-01-06T04:26:21;29.23;;;18.60;;
13584;SDS011;6863;48.402;9.994;2023-01-06T04:28:47;25.00;;;17.77;;
13584;SDS011;6863;48.402;9.994;2023-01-06T04:31:12;27.20;;;17.80;;
13584;SDS011;6863;48.402;9.994;2023-01-06T04:33:38;27.63;;;17.67;;
13584;SDS011;6863;48.402;9.994;2023-01-06T04:36:03;28.27;;;18.47;;
13584;SDS011;6863;48.402;9.994;2023-01-06T04:38:29;28.43;;;18.23;;
13584;SDS011;6863;48.402;9.994;2023-01-06T04:40:55;31.13;;;18.47;;
13584;SDS011;6863;48.402;9.994;2023-01-06T04:43:20;27.93;;;19.23;;
13584;SDS011;6863;48.402;9.994;2023-01-06T04:48:18;31.00;;;19.43;;
13584;SDS011;6863;48.402;9.994;2023-01-06T04:50:44;30.20;;;18.93;;
13584;SDS011;6863;48.402;9.994;2023-01-06T04:53:10;37.20;;;20.40;;
13584;SDS011;6863;48.402;9.994;2023-01-06T04:55:37;31.23;;;19.87;;
13584;SDS011;6863;48.402;9.994;2023-01-06T04:58:03;31.33;;;19.83;;
13584;SDS011;6863;48.402;9.994;2023-01-06T05:00:29;31.73;;;20.07;;
13584;SDS011;6863;48.402;9.994;2023-01-06T05:02:54;31.97;;;20.43;;
13584;SDS011;6863;48.402;9.994;2023-01-06T05:05:20;33.73;;;19.43;;
13584;SDS011;6863;48.402;9.994;2023-01-06T05:07:46;29.37;;;18.00;;
13584;SDS011;6863;48.402;9.994;2023-01-06T05:10:11;27.00;;;16.80;;
13584;SDS011;6863;48.402;9.994;2023-01-06T05:12:37;28.23;;;16.30;;
13584;SDS011;6863;48.402;9.994;2023-01-06T05:15:02;27.97;;;16.97;;
13584;SDS011;6863;48.402;9.994;2023-01-06T05:17:28;29.30;;;17.57;;
13584;SDS011;6863;48.402;9.994;2023-01-06T05:19:54;26.57;;;16.33;;
13584;SDS011;6863;48.402;9.994;2023-01-06T05:22:19;33.83;;;18.33;;
13584;SDS011;6863;48.402;9.994;2023-01-06T05:24:45;28.43;;;17.10;;
13584;SDS011;6863;48.402;9.994;2023-01-06T05:27:11;30.77;;;17.40;;
13584;SDS011;6863;48.402;9.994;2023-01-06T05:29:37;34.27;;;18.57;;
13584;SDS011;6863;48.402;9.994;2023-01-06T05:32:04;31.37;;;17.87;;
13584;SDS011;6863;48.402;9.994;2023-01-06T05:34:29;28.50;;;16.27;;
13584;SDS011;6863;48.402;9.994;2023-01-06T05:36:56;23.83;;;14.17;;
13584;SDS011;6863;48.402;9.994;2023-01-06T05:39:22;22.43;;;12.93;;
13584;SDS011;6863;48.402;9.994;2023-01-06T05:41:48;16.37;;;11.20;;
13584;SDS011;6863;48.402;9.994;2023-01-06T05:44:13;20.50;;;11.67;;
13584;SDS011;6863;48.402;9.994;2023-01-06T05:46:39;12.73;;;9.73;;
13584;SDS011;6863;48.402;9.994;2023-01-06T05:49:04;14.50;;;9.43;;
13584;SDS011;6863;48.402;9.994;2023-01-06T05:51:30;16.13;;;8.93;;
13584;SDS011;6863;48.402;9.994;2023-01-06T05:53:55;15.47;;;9.47;;
13584;SDS011;6863;48.402;9.994;2023-01-06T05:56:21;13.30;;;9.80;;
13584;SDS011;6863;48.402;9.994;2023-01-06T05:58:49;13.70;;;9.93;;
13584;SDS011;6863;48.402;9.994;2023-01-06T06:01:17;17.03;;;9.80;;
13584;SDS011;6863;48.402;9.994;2023-01-06T06:03:47;15.17;;;10.03;;
13584;SDS011;6863;48.402;9.994;2023-01-06T06:06:14;22.80;;;9.83;;
13584;SDS011;6863;48.402;9.994;2023-01-06T06:08:39;15.37;;;10.33;;
13584;SDS011;6863;48.402;9.994;2023-01-06T06:11:10;17.77;;;10.87;;
13584;SDS011;6863;48.402;9.994;2023-01-06T06:13:38;14.40;;;10.13;;
13584;SDS011;6863;48.402;9.994;2023-01-06T06:16:09;20.30;;;10.87;;
13584;SDS011;6863;48.402;9.994;2023-01-06T06:18:36;22.67;;;11.93;;
13584;SDS011;6863;48.402;9.994;2023-01-06T06:21:09;20.77;;;12.73;;
13584;SDS011;6863;48.402;9.994;2023-01-06T06:23:36;21.23;;;12.37;;
13584;SDS011;6863;48.402;9.994;2023-01-06T06:26:01;33.27;;;14.20;;
13584;SDS011;6863;48.402;9.994;2023-01-06T06:28:30;26.50;;;15.80;;
13584;SDS011;6863;48.402;9.994;2023-01-06T06:33:32;27.27;;;15.40;;
13584;SDS011;6863;48.402;9.994;2023-01-06T06:35:58;32.77;;;18.07;;
13584;SDS011;6863;48.402;9.994;2023-01-06T06:38:24;35.47;;;17.53;;
13584;SDS011;6863;48.402;9.994;2023-01-06T06:40:50;32.67;;;16.73;;
13584;SDS011;6863;48.402;9.994;2023-01-06T06:43:16;37.03;;;19.50;;
13584;SDS011;6863;48.402;9.994;2023-01-06T06:48:13;41.63;;;19.83;;
13584;SDS011;6863;48.402;9.994;2023-01-06T06:50:39;40.90;;;21.33;;
13584;SDS011;6863;48.402;9.994;2023-01-06T06:53:05;46.40;;;22.93;;
13584;SDS011;6863;48.402;9.994;2023-01-06T06:55:31;42.00;;;20.53;;
13584;SDS011;6863;48.402;9.994;2023-01-06T06:57:57;35.60;;;17.70;;
13584;SDS011;6863;48.402;9.994;2023-01-06T07:00:22;41.87;;;20.73;;
13584;SDS011;6863;48.402;9.994;2023-01-06T07:02:49;38.90;;;19.63;;
13584;SDS011;6863;48.402;9.994;2023-01-06T07:05:15;38.83;;;18.30;;
13584;SDS011;6863;48.402;9.994;2023-01-06T07:07:41;41.77;;;19.80;;
13584;SDS011;6863;48.402;9.994;2023-01-06T07:10:10;38.07;;;18.33;;
13584;SDS011;6863;48.402;9.994;2023-01-06T07:12:40;34.57;;;18.37;;
13584;SDS011;6863;48.402;9.994;2023-01-06T07:15:06;38.43;;;15.43;;
13584;SDS011;6863;48.402;9.994;2023-01-06T07:17:33;31.50;;;15.43;;
13584;SDS011;6863;48.402;9.994;2023-01-06T07:19:59;34.73;;;15.23;;
13584;SDS011;6863;48.402;9.994;2023-01-06T07:22:24;28.30;;;15.73;;
13584;SDS011;6863;48.402;9.994;2023-01-06T07:24:50;27.57;;;15.07;;
13584;SDS011;6863;48.402;9.994;2023-01-06T07:27:15;24.37;;;12.67;;
13584;SDS011;6863;48.402;9.994;2023-01-06T07:29:41;24.30;;;13.30;;
13584;SDS011;6863;48.402;9.994;2023-01-06T07:32:07;24.70;;;13.33;;
13584;SDS011;6863;48.402;9.994;2023-01-06T07:34:33;22.77;;;13.70;;
13584;SDS011;6863;48.402;9.994;2023-01-06T07:36:59;24.33;;;14.10;;
13584;SDS011;6863;48.402;9.994;2023-01-06T07:39:24;21.63;;;12.37;;
13584;SDS011;6863;48.402;9.994;2023-01-06T07:41:50;23.53;;;12.57;;
13584;SDS011;6863;48.402;9.994;2023-01-06T07:44:16;22.30;;;12.13;;
13584;SDS011;6863;48.402;9.994;2023-01-06T07:46:41;23.77;;;12.20;;
13584;SDS011;6863;48.402;9.994;2023-01-06T07:49:07;29.80;;;14.37;;
13584;SDS011;6863;48.402;9.994;2023-01-06T07:51:32;30.57;;;15.73;;
13584;SDS011;6863;48.402;9.994;2023-01-06T07:53:58;29.13;;;14.43;;
13584;SDS011;6863;48.402;9.994;2023-01-06T07:56:24;24.50;;;13.27;;
13584;SDS011;6863;48.402;9.994;2023-01-06T07:58:50;25.00;;;13.83;;
13584;SDS011;6863;48.402;9.994;2023-01-06T08:01:15;23.17;;;12.73;;
13584;SDS011;6863;48.402;9.994;2023-01-06T08:03:41;23.63;;;13.63;;
13584;SDS011;6863;48.402;9.994;2023-01-06T08:06:07;34.80;;;16.83;;
13584;SDS011;6863;48.402;9.994;2023-01-06T08:08:38;32.27;;;15.17;;
13584;SDS011;6863;48.402;9.994;2023-01-06T08:11:05;30.10;;;16.13;;
13584;SDS011;6863;48.402;9.994;2023-01-06T08:13:32;35.50;;;16.73;;
13584;SDS011;6863;48.402;9.994;2023-01-06T08:15:58;40.17;;;17.93;;
13584;SDS011;6863;48.402;9.994;2023-01-06T08:18:24;37.77;;;17.83;;
13584;SDS011;6863;48.402;9.994;2023-01-06T08:20:50;35.60;;;16.87;;
13584;SDS011;6863;48.402;9.994;2023-01-06T08:23:15;27.93;;;14.33;;
13584;SDS011;6863;48.402;9.994;2023-01-06T08:25:41;27.10;;;15.43;;
13584;SDS011;6863;48.402;9.994;2023-01-06T08:28:06;25.53;;;14.00;;
13584;SDS011;6863;48.402;9.994;2023-01-06T08:30:32;21.43;;;11.67;;
13584;SDS011;6863;48.402;9.994;2023-01-06T08:33:03;22.13;;;9.97;;
13584;SDS011;6863;48.402;9.994;2023-01-06T08:35:29;22.70;;;10.73;;
13584;SDS011;6863;48.402;9.994;2023-01-06T08:37:55;19.93;;;11.30;;
13584;SDS011;6863;48.402;9.994;2023-01-06T08:40:20;18.97;;;10.30;;
13584;SDS011;6863;48.402;9.994;2023-01-06T08:42:46;19.07;;;10.83;;
13584;SDS011;6863;48.402;9.994;2023-01-06T08:45:11;22.27;;;11.27;;
13584;SDS011;6863;48.402;9.994;2023-01-06T08:47:37;19.57;;;11.27;;
13584;SDS011;6863;48.402;9.994;2023-01-06T08:50:03;22.07;;;11.47;;
13584;SDS011;6863;48.402;9.994;2023-01-06T08:52:29;21.53;;;11.43;;
13584;SDS011;6863;48.402;9.994;2023-01-06T08:54:54;23.17;;;12.27;;
13584;SDS011;6863;48.402;9.994;2023-01-06T08:57:20;18.80;;;11.60;;
13584;SDS011;6863;48.402;9.994;2023-01-06T08:59:45;17.40;;;10.20;;
13584;SDS011;6863;48.402;9.994;2023-01-06T09:02:11;22.00;;;11.43;;
13584;SDS011;6863;48.402;9.994;2023-01-06T09:04:37;17.87;;;10.90;;
13584;SDS011;6863;48.402;9.994;2023-01-06T09:07:03;16.57;;;10.47;;
13584;SDS011;6863;48.402;9.994;2023-01-06T09:09:28;14.60;;;9.13;;
13584;SDS011;6863;48.402;9.994;2023-01-06T09:11:54;15.63;;;10.13;;
13584;SDS011;6863;48.402;9.994;2023-01-06T09:14:19;13.80;;;8.93;;
13584;SDS011;6863;48.402;9.994;2023-01-06T09:16:45;14.13;;;10.00;;
13584;SDS011;6863;48.402;9.994;2023-01-06T09:19:12;12.93;;;9.67;;
13584;SDS011;6863;48.402;9.994;2023-01-06T09:21:40;13.30;;;9.07;;
13584;SDS011;6863;48.402;9.994;2023-01-06T09:24:08;14.43;;;9.70;;
13584;SDS011;6863;48.402;9.994;2023-01-06T09:26:37;14.30;;;9.50;;
13584;SDS011;6863;48.402;9.994;2023-01-06T09:29:03;12.30;;;9.33;;
13584;SDS011;6863;48.402;9.994;2023-01-06T09:31:28;14.23;;;9.90;;
13584;SDS011;6863;48.402;9.994;2023-01-06T09:33:54;13.10;;;9.13;;
13584;SDS011;6863;48.402;9.994;2023-01-06T09:36:20;11.03;;;7.30;;
13584;SDS011;6863;48.402;9.994;2023-01-06T09:38:46;12.90;;;8.80;;
13584;SDS011;6863;48.402;9.994;2023-01-06T09:44:29;13.70;;;10.13;;
13584;SDS011;6863;48.402;9.994;2023-01-06T09:46:58;11.73;;;8.17;;
13584;SDS011;6863;48.402;9.994;2023-01-06T09:51:58;12.67;;;9.00;;
13584;SDS011;6863;48.402;9.994;2023-01-06T09:54:52;11.50;;;9.30;;
13584;SDS011;6863;48.402;9.994;2023-01-06T09:57:27;12.63;;;8.17;;
13584;SDS011;6863;48.402;9.994;2023-01-06T09:59:59;13.53;;;10.10;;
13584;SDS011;6863;48.402;9.994;2023-01-06T10:02:31;11.00;;;8.10;;
13584;SDS011;6863;48.402;9.994;2023-01-06T10:05:02;12.77;;;8.57;;
13584;SDS011;6863;48.402;9.994;2023-01-06T10:07:44;11.63;;;8.70;;
13584;SDS011;6863;48.402;9.994;2023-01-06T10:10:43;12.63;;;9.60;;
13584;SDS011;6863;48.402;9.994;2023-01-06T10:14:19;12.97;;;9.57;;
13584;SDS011;6863;48.402;9.994;2023-01-06T10:19:25;10.50;;;8.67;;
13584;SDS011;6863;48.402;9.994;2023-01-06T10:22:14;9.93;;;7.43;;
13584;SDS011;6863;48.402;9.994;2023-01-06T10:25:00;8.27;;;6.93;;
13584;SDS011;6863;48.402;9.994;2023-01-06T10:28:12;10.27;;;7.20;;
13584;SDS011;6863;48.402;9.994;2023-01-06T10:30:43;6.57;;;5.50;;
13584;SDS011;6863;48.402;9.994;2023-01-06T10:33:19;6.40;;;5.07;;
13584;SDS011;6863;48.402;9.994;2023-01-06T10:35:47;6.07;;;5.13;;
13584;SDS011;6863;48.402;9.994;2023-01-06T10:38:14;5.17;;;4.53;;
13584;SDS011;6863;48.402;9.994;2023-01-06T10:40:41;4.43;;;4.03;;
13584;SDS011;6863;48.402;9.994;2023-01-06T10:43:10;5.43;;;4.80;;
13584;SDS011;6863;48.402;9.994;2023-01-06T10:48:32;5.17;;;4.63;;
13584;SDS011;6863;48.402;9.994;2023-01-06T10:51:01;4.67;;;4.27;;
13584;SDS011;6863;48.402;9.994;2023-01-06T10:53:55;4.23;;;3.87;;
13584;SDS011;6863;48.402;9.994;2023-01-06T10:56:22;4.23;;;3.50;;
13584;SDS011;6863;48.402;9.994;2023-01-06T10:58:51;3.13;;;2.83;;
13584;SDS011;6863;48.402;9.994;2023-01-06T11:01:26;3.17;;;2.87;;
13584;SDS011;6863;48.402;9.994;2023-01-06T11:04:10;2.90;;;2.70;;
13584;SDS011;6863;48.402;9.994;2023-01-06T11:09:36;3.63;;;3.33;;
13584;SDS011;6863;48.402;9.994;2023-01-06T11:12:14;3.30;;;3.00;;
13584;SDS011;6863;48.402;9.994;2023-01-06T11:14:50;3.13;;;2.83;;
13584;SDS011;6863;48.402;9.994;2023-01-06T11:17:32;2.60;;;2.40;;
13584;SDS011;6863;48.402;9.994;2023-01-06T11:22:53;2.70;;;2.50;;
13584;SDS011;6863;48.402;9.994;2023-01-06T11:28:16;2.80;;;2.60;;
13584;SDS011;6863;48.402;9.994;2023-01-06T11:33:34;2.77;;;2.57;;
13584;SDS011;6863;48.402;9.994;2023-01-06T11:36:12;3.23;;;2.43;;
13584;SDS011;6863;48.402;9.994;2023-01-06T11:38:39;2.50;;;2.30;;
13584;SDS011;6863;48.402;9.994;2023-01-06T11:41:11;3.00;;;2.70;;
13584;SDS011;6863;48.402;9.994;2023-01-06T11:43:42;3.20;;;2.57;;
13584;SDS011;6863;48.402;9.994;2023-01-06T11:46:10;3.50;;;2.63;;
13584;SDS011;6863;48.402;9.994;2023-01-06T11:48:47;2.20;;;2.03;;
13584;SDS011;6863;48.402;9.994;2023-01-06T11:54:22;3.60;;;3.30;;
13584;SDS011;6863;48.402;9.994;2023-01-06T11:56:58;4.53;;;4.13;;
13584;SDS011;6863;48.402;9.994;2023-01-06T11:59:36;4.80;;;4.40;;
13584;SDS011;6863;48.402;9.994;2023-01-06T12:02:20;5.93;;;5.43;;
13584;SDS011;6863;48.402;9.994;2023-01-06T12:04:50;6.40;;;5.87;;
13584;SDS011;6863;48.402;9.994;2023-01-06T12:07:31;7.37;;;6.67;;
13584;SDS011;6863;48.402;9.994;2023-01-06T12:10:08;7.17;;;6.67;;
13584;SDS011;6863;48.402;9.994;2023-01-06T12:12:40;6.80;;;6.30;;
13584;SDS011;6863;48.402;9.994;2023-01-06T12:15:13;6.07;;;5.57;;
13584;SDS011;6863;48.402;9.994;2023-01-06T12:17:47;6.93;;;6.33;;
13584;SDS011;6863;48.402;9.994;2023-01-06T12:22:47;7.83;;;7.23;;
13584;SDS011;6863;48.402;9.994;2023-01-06T12:25:25;8.77;;;8.07;;
13584;SDS011;6863;48.402;9.994;2023-01-06T12:27:58;7.50;;;6.90;;
13584;SDS011;6863;48.402;9.994;2023-01-06T12:30:33;7.30;;;6.70;;
13584;SDS011;6863;48.402;9.994;2023-01-06T12:33:13;6.33;;;5.83;;
13584;SDS011;6863;48.402;9.994;2023-01-06T12:35:45;7.20;;;6.50;;
13584;SDS011;6863;48.402;9.994;2023-01-06T12:38:27;6.83;;;6.23;;
13584;SDS011;6863;48.402;9.994;2023-01-06T12:41:00;7.07;;;6.37;;
13584;SDS011;6863;48.402;9.994;2023-01-06T12:43:32;5.50;;;5.07;;
13584;SDS011;6863;48.402;9.994;2023-01-06T12:46:06;5.40;;;5.00;;
13584;SDS011;6863;48.402;9.994;2023-01-06T12:48:44;5.27;;;4.87;;
13584;SDS011;6863;48.402;9.994;2023-01-06T12:51:27;5.73;;;5.23;;
13584;SDS011;6863;48.402;9.994;2023-01-06T12:54:05;5.77;;;4.93;;
13584;SDS011;6863;48.402;9.994;2023-01-06T13:08:17;3.77;;;3.47;;
13584;SDS011;6863;48.402;9.994;2023-01-06T13:10:45;3.53;;;3.23;;
13584;SDS011;6863;48.402;9.994;2023-01-06T13:13:38;3.80;;;3.50;;
13584;SDS011;6863;48.402;9.994;2023-01-06T13:19:36;4.20;;;3.80;;
13584;SDS011;6863;48.402;9.994;2023-01-06T13:22:13;4.17;;;3.77;;
13584;SDS011;6863;48.402;9.994;2023-01-06T13:30:36;4.00;;;3.10;;
13584;SDS011;6863;48.402;9.994;2023-01-06T13:36:02;3.00;;;2.60;;
13584;SDS011;6863;48.402;9.994;2023-01-06T13:38:46;3.03;;;2.83;;
13584;SDS011;6863;48.402;9.994;2023-01-06T13:41:18;2.77;;;2.57;;
13584;SDS011;6863;48.402;9.994;2023-01-06T13:43:49;3.40;;;3.10;;
13584;SDS011;6863;48.402;9.994;2023-01-06T13:46:17;3.13;;;2.83;;
13584;SDS011;6863;48.402;9.994;2023-01-06T13:48:48;3.70;;;3.40;;
13584;SDS011;6863;48.402;9.994;2023-01-06T13:51:19;2.60;;;2.40;;
13584;SDS011;6863;48.402;9.994;2023-01-06T13:53:47;2.63;;;2.40;;
13584;SDS011;6863;48.402;9.994;2023-01-06T13:58:40;2.00;;;1.90;;
13584;SDS011;6863;48.402;9.994;2023-01-06T14:01:07;2.40;;;2.30;;
13584;SDS011;6863;48.402;9.994;2023-01-06T14:03:54;2.83;;;2.63;;
13584;SDS011;6863;48.402;9.994;2023-01-06T14:07:03;2.60;;;2.40;;
13584;SDS011;6863;48.402;9.994;2023-01-06T14:09:36;3.00;;;2.80;;
13584;SDS011;6863;48.402;9.994;2023-01-06T14:12:10;2.70;;;2.40;;
13584;SDS011;6863;48.402;9.994;2023-01-06T14:14:52;2.47;;;2.27;;
13584;SDS011;6863;48.402;9.994;2023-01-06T14:17:28;2.77;;;2.57;;
13584;SDS011;6863;48.402;9.994;2023-01-06T14:19:56;3.00;;;2.70;;
13584;SDS011;6863;48.402;9.994;2023-01-06T14:22:23;2.57;;;2.37;;
13584;SDS011;6863;48.402;9.994;2023-01-06T14:25:00;2.47;;;2.27;;
13584;SDS011;6863;48.402;9.994;2023-01-06T14:28:03;2.77;;;2.37;;
13584;SDS011;6863;48.402;9.994;2023-01-06T14:30:31;2.87;;;2.67;;
13584;SDS011;6863;48.402;9.994;2023-01-06T14:32:59;2.20;;;2.10;;
13584;SDS011;6863;48.402;9.994;2023-01-06T14:35:32;2.77;;;2.57;;
13584;SDS011;6863;48.402;9.994;2023-01-06T14:38:26;3.73;;;2.60;;
13584;SDS011;6863;48.402;9.994;2023-01-06T14:41:02;2.97;;;2.77;;
13584;SDS011;6863;48.402;9.994;2023-01-06T14:43:32;2.90;;;2.70;;
13584;SDS011;6863;48.402;9.994;2023-01-06T14:46:16;2.70;;;2.50;;
13584;SDS011;6863;48.402;9.994;2023-01-06T14:49:03;2.50;;;2.30;;
13584;SDS011;6863;48.402;9.994;2023-01-06T14:51:30;2.67;;;2.47;;
13584;SDS011;6863;48.402;9.994;2023-01-06T14:54:06;2.53;;;2.20;;
13584;SDS011;6863;48.402;9.994;2023-01-06T14:56:50;2.70;;;2.50;;
13584;SDS011;6863;48.402;9.994;2023-01-06T14:59:21;3.20;;;2.90;;
13584;SDS011;6863;48.402;9.994;2023-01-06T15:02:20;2.90;;;2.70;;
13584;SDS011;6863;48.402;9.994;2023-01-06T15:04:40;3.20;;;2.90;;
13584;SDS011;6863;48.402;9.994;2023-01-06T15:07:17;3.53;;;3.23;;
13584;SDS011;6863;48.402;9.994;2023-01-06T15:09:45;3.53;;;3.23;;
13584;SDS011;6863;48.402;9.994;2023-01-06T15:15:12;3.33;;;3.03;;
13584;SDS011;6863;48.402;9.994;2023-01-06T15:17:52;4.43;;;3.30;;
13584;SDS011;6863;48.402;9.994;2023-01-06T15:20:21;4.80;;;3.20;;
13584;SDS011;6863;48.402;9.994;2023-01-06T15:22:51;4.67;;;3.30;;
13584;SDS011;6863;48.402;9.994;2023-01-06T15:25:18;4.00;;;3.40;;
13584;SDS011;6863;48.402;9.994;2023-01-06T15:27:47;4.10;;;3.80;;
13584;SDS011;6863;48.402;9.994;2023-01-06T15:30:14;3.40;;;3.10;;
13584;SDS011;6863;48.402;9.994;2023-01-06T15:32:43;3.53;;;3.23;;
13584;SDS011;6863;48.402;9.994;2023-01-06T15:35:14;3.53;;;3.23;;
13584;SDS011;6863;48.402;9.994;2023-01-06T15:37:44;3.77;;;3.40;;
13584;SDS011;6863;48.402;9.994;2023-01-06T15:40:17;3.97;;;3.67;;
13584;SDS011;6863;48.402;9.994;2023-01-06T15:42:46;4.23;;;3.60;;
13584;SDS011;6863;48.402;9.994;2023-01-06T15:45:23;3.83;;;3.47;;
13584;SDS011;6863;48.402;9.994;2023-01-06T15:47:51;3.50;;;3.20;;
13584;SDS011;6863;48.402;9.994;2023-01-06T15:50:22;3.73;;;3.43;;
13584;SDS011;6863;48.402;9.994;2023-01-06T15:52:51;3.30;;;3.10;;
13584;SDS011;6863;48.402;9.994;2023-01-06T15:55:20;3.93;;;3.63;;
13584;SDS011;6863;48.402;9.994;2023-01-06T15:57:59;3.97;;;3.53;;
13584;SDS011;6863;48.402;9.994;2023-01-06T16:00:41;3.73;;;3.43;;
13584;SDS011;6863;48.402;9.994;2023-01-06T16:03:15;3.37;;;3.07;;
13584;SDS011;6863;48.402;9.994;2023-01-06T16:05:44;3.53;;;3.23;;
13584;SDS011;6863;48.402;9.994;2023-01-06T16:08:14;3.63;;;3.33;;
13584;SDS011;6863;48.402;9.994;2023-01-06T16:10:43;3.60;;;3.30;;
13584;SDS011;6863;48.402;9.994;2023-01-06T16:18:25;3.83;;;3.27;;
13584;SDS011;6863;48.402;9.994;2023-01-06T16:20:52;4.00;;;3.60;;
13584;SDS011;6863;48.402;9.994;2023-01-06T16:23:25;3.13;;;2.93;;
13584;SDS011;6863;48.402;9.994;2023-01-06T16:26:01;3.50;;;3.00;;
13584;SDS011;6863;48.402;9.994;2023-01-06T16:28:54;2.80;;;2.60;;
13584;SDS011;6863;48.402;9.994;2023-01-06T16:31:32;3.23;;;2.93;;
13584;SDS011;6863;48.402;9.994;2023-01-06T16:34:13;3.00;;;2.73;;
13584;SDS011;6863;48.402;9.994;2023-01-06T16:36:39;3.03;;;2.83;;
13584;SDS011;6863;48.402;9.994;2023-01-06T16:39:04;3.70;;;3.40;;
13584;SDS011;6863;48.402;9.994;2023-01-06T16:41:30;4.60;;;3.80;;
13584;SDS011;6863;48.402;9.994;2023-01-06T16:43:55;3.20;;;3.00;;
13584;SDS011;6863;48.402;9.994;2023-01-06T16:46:22;6.53;;;4.30;;
13584;SDS011;6863;48.402;9.994;2023-01-06T16:48:53;4.90;;;4.50;;
13584;SDS011;6863;48.402;9.994;2023-01-06T16:51:19;4.60;;;4.10;;
13584;SDS011;6863;48.402;9.994;2023-01-06T16:53:46;4.67;;;4.27;;
13584;SDS011;6863;48.402;9.994;2023-01-06T16:56:19;4.47;;;3.90;;
13584;SDS011;6863;48.402;9.994;2023-01-06T16:58:46;4.63;;;4.23;;
13584;SDS011;6863;48.402;9.994;2023-01-06T17:01:17;5.20;;;4.70;;
13584;SDS011;6863;48.402;9.994;2023-01-06T17:03:47;3.67;;;3.37;;
13584;SDS011;6863;48.402;9.994;2023-01-06T17:06:23;4.00;;;3.67;;
13584;SDS011;6863;48.402;9.994;2023-01-06T17:08:52;7.03;;;6.23;;